sensor_id;sensor_type;location;lat;lon;timestamp;pressure;altitude;pressure_sealevel;temperature;humidity
50105;BME280;47690;39.202;-77.198;2023-11-18T00:02:23;99622.13;;;19.51;50.89
50105;BME280;47690;39.202;-77.198;2023-11-18T00:04:54;99625.47;;;19.54;50.67
50105;BME280;47690;39.202;-77.198;2023-11-18T00:07:25;99626.31;;;19.54;50.87
50105;BME280;47690;39.202;-77.198;2023-11-18T00:09:54;99623.81;;;19.52;50.69
50105;BME280;47690;39.202;-77.198;2023-11-18T00:12:23;99623.81;;;19.52;50.67
50105;BME280;47690;39.202;-77.198;2023-11-18T00:14:57;99625.56;;;19.52;50.78
50105;BME280;47690;39.202;-77.198;2023-11-18T00:17:26;99624.00;;;19.49;51.01
50105;BME280;47690;39.202;-77.198;2023-11-18T00:19:56;99617.66;;;19.39;51.02
50105;BME280;47690;39.202;-77.198;2023-11-18T00:22:27;99612.16;;;19.44;51.11
50105;BME280;47690;39.202;-77.198;2023-11-18T00:25:06;99602.84;;;19.40;51.47
50105;BME280;47690;39.202;-77.198;2023-11-18T00:27:40;99619.91;;;19.45;50.99
50105;BME280;47690;39.202;-77.198;2023-11-18T00:30:10;99625.22;;;19.44;51.02
50105;BME280;47690;39.202;-77.198;2023-11-18T00:32:44;99610.69;;;19.40;51.27
50105;BME280;47690;39.202;-77.198;2023-11-18T00:35:14;99610.78;;;19.38;51.04
50105;BME280;47690;39.202;-77.198;2023-11-18T00:37:46;99606.41;;;19.38;51.39
50105;BME280;47690;39.202;-77.198;2023-11-18T00:40:18;99603.03;;;19.36;51.31
50105;BME280;47690;39.202;-77.198;2023-11-18T00:42:46;99600.22;;;19.40;51.33
50105;BME280;47690;39.202;-77.198;2023-11-18T00:45:15;99594.88;;;19.41;51.62
50105;BME280;47690;39.202;-77.198;2023-11-18T00:47:45;99592.28;;;19.41;51.61
50105;BME280;47690;39.202;-77.198;2023-11-18T00:50:16;99590.59;;;19.40;51.59
50105;BME280;47690;39.202;-77.198;2023-11-18T00:52:47;99601.06;;;19.40;51.84
50105;BME280;47690;39.202;-77.198;2023-11-18T00:55:16;99597.63;;;19.40;51.89
50105;BME280;47690;39.202;-77.198;2023-11-18T00:57:47;99598.44;;;19.40;51.72
50105;BME280;47690;39.202;-77.198;2023-11-18T01:00:17;99592.28;;;19.41;51.73
50105;BME280;47690;39.202;-77.198;2023-11-18T01:02:50;99588.94;;;19.39;51.84
50105;BME280;47690;39.202;-77.198;2023-11-18T01:05:23;99583.91;;;19.36;52.44
50105;BME280;47690;39.202;-77.198;2023-11-18T01:07:52;99586.53;;;19.36;52.59
50105;BME280;47690;39.202;-77.198;2023-11-18T01:10:24;99578.78;;;19.34;52.69
50105;BME280;47690;39.202;-77.198;2023-11-18T01:12:57;99585.03;;;19.32;52.69
50105;BME280;47690;39.202;-77.198;2023-11-18T01:15:39;99582.41;;;19.32;52.80
50105;BME280;47690;39.202;-77.198;2023-11-18T01:18:08;99580.75;;;19.31;53.13
50105;BME280;47690;39.202;-77.198;2023-11-18T01:20:37;99577.50;;;19.27;53.33
50105;BME280;47690;39.202;-77.198;2023-11-18T01:23:06;99575.53;;;19.31;53.37
50105;BME280;47690;39.202;-77.198;2023-11-18T01:25:38;99572.47;;;19.24;53.50
50105;BME280;47690;39.202;-77.198;2023-11-18T01:28:09;99566.22;;;19.27;53.76
50105;BME280;47690;39.202;-77.198;2023-11-18T01:30:39;99561.91;;;19.25;53.40
50105;BME280;47690;39.202;-77.198;2023-11-18T01:33:09;99570.50;;;19.28;53.79
50105;BME280;47690;39.202;-77.198;2023-11-18T01:35:38;99566.31;;;19.25;53.94
50105;BME280;47690;39.202;-77.198;2023-11-18T01:38:07;99570.16;;;19.19;53.99
50105;BME280;47690;39.202;-77.198;2023-11-18T01:40:38;99570.31;;;19.16;54.30
50105;BME280;47690;39.202;-77.198;2023-11-18T01:43:11;99573.78;;;19.17;54.73
50105;BME280;47690;39.202;-77.198;2023-11-18T01:45:43;99564.47;;;19.13;54.72
50105;BME280;47690;39.202;-77.198;2023-11-18T01:48:12;99566.25;;;19.12;54.78
50105;BME280;47690;39.202;-77.198;2023-11-18T01:50:43;99556.91;;;19.08;54.68
50105;BME280;47690;39.202;-77.198;2023-11-18T01:53:16;99552.44;;;19.10;54.75
50105;BME280;47690;39.202;-77.198;2023-11-18T01:55:45;99558.50;;;19.10;54.79
50105;BME280;47690;39.202;-77.198;2023-11-18T01:58:15;99556.06;;;19.07;54.83
50105;BME280;47690;39.202;-77.198;2023-11-18T02:00:48;99550.03;;;19.07;54.84
50105;BME280;47690;39.202;-77.198;2023-11-18T02:03:19;99560.53;;;19.05;54.95
50105;BME280;47690;39.202;-77.198;2023-11-18T02:05:49;99548.59;;;19.01;54.97
50105;BME280;47690;39.202;-77.198;2023-11-18T02:08:19;99551.31;;;19.00;55.03
50105;BME280;47690;39.202;-77.198;2023-11-18T02:10:56;99554.94;;;18.97;55.22
50105;BME280;47690;39.202;-77.198;2023-11-18T02:13:32;99552.53;;;18.94;55.86
50105;BME280;47690;39.202;-77.198;2023-11-18T02:16:08;99560.34;;;18.94;55.56
50105;BME280;47690;39.202;-77.198;2023-11-18T02:18:38;99557.91;;;18.91;55.47
50105;BME280;47690;39.202;-77.198;2023-11-18T02:21:13;99559.41;;;18.95;55.39
50105;BME280;47690;39.202;-77.198;2023-11-18T02:23:43;99554.47;;;18.90;55.48
50105;BME280;47690;39.202;-77.198;2023-11-18T02:26:24;99552.63;;;18.92;55.87
50105;BME280;47690;39.202;-77.198;2023-11-18T02:28:54;99553.44;;;18.93;55.31
50105;BME280;47690;39.202;-77.198;2023-11-18T02:31:28;99555.97;;;18.94;55.64
50105;BME280;47690;39.202;-77.198;2023-11-18T02:34:13;99567.91;;;18.98;56.18
50105;BME280;47690;39.202;-77.198;2023-11-18T02:36:48;99556.03;;;18.93;56.19
50105;BME280;47690;39.202;-77.198;2023-11-18T02:39:34;99565.28;;;18.98;56.80
50105;BME280;47690;39.202;-77.198;2023-11-18T02:42:09;99562.13;;;18.93;56.03
50105;BME280;47690;39.202;-77.198;2023-11-18T02:44:45;99553.63;;;18.90;56.13
50105;BME280;47690;39.202;-77.198;2023-11-18T02:47:15;99564.91;;;18.90;56.33
50105;BME280;47690;39.202;-77.198;2023-11-18T02:49:45;99549.53;;;18.86;56.48
50105;BME280;47690;39.202;-77.198;2023-11-18T02:52:17;99556.53;;;18.85;56.41
50105;BME280;47690;39.202;-77.198;2023-11-18T02:54:51;99549.63;;;18.84;56.60
50105;BME280;47690;39.202;-77.198;2023-11-18T02:57:20;99566.31;;;18.81;56.84
50105;BME280;47690;39.202;-77.198;2023-11-18T02:59:56;99539.00;;;18.73;56.97
50105;BME280;47690;39.202;-77.198;2023-11-18T03:02:33;99545.81;;;18.75;56.89
50105;BME280;47690;39.202;-77.198;2023-11-18T03:05:09;99555.22;;;18.78;57.61
50105;BME280;47690;39.202;-77.198;2023-11-18T03:08:25;99551.41;;;18.83;58.61
50105;BME280;47690;39.202;-77.198;2023-11-18T03:10:58;99544.78;;;18.78;57.94
50105;BME280;47690;39.202;-77.198;2023-11-18T03:13:30;99555.03;;;18.81;58.79
50105;BME280;47690;39.202;-77.198;2023-11-18T03:16:02;99552.63;;;18.78;59.07
50105;BME280;47690;39.202;-77.198;2023-11-18T03:18:37;99545.59;;;18.78;59.49
50105;BME280;47690;39.202;-77.198;2023-11-18T03:21:14;99546.38;;;18.80;59.89
50105;BME280;47690;39.202;-77.198;2023-11-18T03:23:43;99534.34;;;18.78;59.27
50105;BME280;47690;39.202;-77.198;2023-11-18T03:26:15;99540.22;;;18.81;59.71
50105;BME280;47690;39.202;-77.198;2023-11-18T03:28:44;99540.97;;;18.83;59.88
50105;BME280;47690;39.202;-77.198;2023-11-18T03:31:16;99533.03;;;18.85;59.65
50105;BME280;47690;39.202;-77.198;2023-11-18T03:33:45;99530.44;;;18.85;59.32
50105;BME280;47690;39.202;-77.198;2023-11-18T03:36:14;99524.47;;;18.83;59.55
50105;BME280;47690;39.202;-77.198;2023-11-18T03:38:47;99521.66;;;18.86;59.62
50105;BME280;47690;39.202;-77.198;2023-11-18T03:41:17;99520.00;;;18.85;59.76
50105;BME280;47690;39.202;-77.198;2023-11-18T03:43:49;99514.03;;;18.83;60.07
50105;BME280;47690;39.202;-77.198;2023-11-18T03:46:18;99506.38;;;18.80;59.80
50105;BME280;47690;39.202;-77.198;2023-11-18T03:48:47;99517.38;;;18.85;59.78
50105;BME280;47690;39.202;-77.198;2023-11-18T03:51:16;99509.66;;;18.83;59.77
50105;BME280;47690;39.202;-77.198;2023-11-18T03:53:48;99511.31;;;18.84;60.26
50105;BME280;47690;39.202;-77.198;2023-11-18T03:56:22;99509.56;;;18.85;60.90
50105;BME280;47690;39.202;-77.198;2023-11-18T03:58:53;99507.25;;;18.80;60.93
50105;BME280;47690;39.202;-77.198;2023-11-18T04:01:25;99506.38;;;18.80;60.96
50105;BME280;47690;39.202;-77.198;2023-11-18T04:03:58;99509.06;;;18.93;62.36
50105;BME280;47690;39.202;-77.198;2023-11-18T04:06:32;99507.97;;;18.82;60.47
50105;BME280;47690;39.202;-77.198;2023-11-18T04:09:04;99505.94;;;18.73;60.81
50105;BME280;47690;39.202;-77.198;2023-11-18T04:11:40;99515.59;;;18.71;61.30
50105;BME280;47690;39.202;-77.198;2023-11-18T04:14:15;99502.84;;;18.66;61.51
50105;BME280;47690;39.202;-77.198;2023-11-18T04:16:45;99497.91;;;18.62;61.90
50105;BME280;47690;39.202;-77.198;2023-11-18T04:19:15;99494.50;;;18.61;61.70
50105;BME280;47690;39.202;-77.198;2023-11-18T04:21:55;99481.25;;;18.64;61.76
50105;BME280;47690;39.202;-77.198;2023-11-18T04:24:25;99479.66;;;18.62;61.40
50105;BME280;47690;39.202;-77.198;2023-11-18T04:26:56;99474.56;;;18.60;62.10
50105;BME280;47690;39.202;-77.198;2023-11-18T04:29:25;99469.72;;;18.54;62.74
50105;BME280;47690;39.202;-77.198;2023-11-18T04:31:55;99471.56;;;18.52;62.54
50105;BME280;47690;39.202;-77.198;2023-11-18T04:34:25;99466.16;;;18.55;62.53
50105;BME280;47690;39.202;-77.198;2023-11-18T04:36:55;99455.81;;;18.53;62.21
50105;BME280;47690;39.202;-77.198;2023-11-18T04:39:31;99444.81;;;18.48;62.06
50105;BME280;47690;39.202;-77.198;2023-11-18T04:42:02;99454.06;;;18.54;61.88
50105;BME280;47690;39.202;-77.198;2023-11-18T04:44:36;99451.63;;;18.51;62.16
50105;BME280;47690;39.202;-77.198;2023-11-18T04:47:07;99438.59;;;18.51;62.31
50105;BME280;47690;39.202;-77.198;2023-11-18T04:49:40;99432.56;;;18.50;62.20
50105;BME280;47690;39.202;-77.198;2023-11-18T04:52:10;99425.66;;;18.49;62.17
50105;BME280;47690;39.202;-77.198;2023-11-18T04:54:39;99415.41;;;18.46;62.26
50105;BME280;47690;39.202;-77.198;2023-11-18T04:57:08;99421.47;;;18.47;62.30
50105;BME280;47690;39.202;-77.198;2023-11-18T04:59:39;99415.50;;;18.45;62.63
50105;BME280;47690;39.202;-77.198;2023-11-18T05:02:09;99413.81;;;18.43;62.63
50105;BME280;47690;39.202;-77.198;2023-11-18T05:04:43;99404.31;;;18.42;62.57
50105;BME280;47690;39.202;-77.198;2023-11-18T05:07:13;99400.06;;;18.41;62.78
50105;BME280;47690;39.202;-77.198;2023-11-18T05:12:27;99393.25;;;18.39;62.48
50105;BME280;47690;39.202;-77.198;2023-11-18T05:14:57;99387.22;;;18.38;62.65
50105;BME280;47690;39.202;-77.198;2023-11-18T05:17:27;99399.31;;;18.39;62.53
50105;BME280;47690;39.202;-77.198;2023-11-18T05:20:06;99392.31;;;18.40;62.49
50105;BME280;47690;39.202;-77.198;2023-11-18T05:22:42;99382.00;;;18.38;62.33
50105;BME280;47690;39.202;-77.198;2023-11-18T05:25:12;99376.13;;;18.35;62.19
50105;BME280;47690;39.202;-77.198;2023-11-18T05:27:42;99372.13;;;18.29;62.22
50105;BME280;47690;39.202;-77.198;2023-11-18T05:30:16;99369.34;;;18.32;61.91
50105;BME280;47690;39.202;-77.198;2023-11-18T05:32:47;99362.84;;;18.25;62.07
50105;BME280;47690;39.202;-77.198;2023-11-18T05:35:17;99369.22;;;18.19;62.23
50105;BME280;47690;39.202;-77.198;2023-11-18T05:37:47;99360.75;;;18.15;62.33
50105;BME280;47690;39.202;-77.198;2023-11-18T05:40:17;99354.00;;;18.13;62.33
50105;BME280;47690;39.202;-77.198;2023-11-18T05:42:54;99346.34;;;18.10;62.71
50105;BME280;47690;39.202;-77.198;2023-11-18T05:45:24;99347.28;;;18.09;62.35
50105;BME280;47690;39.202;-77.198;2023-11-18T05:48:06;99338.63;;;18.08;62.57
50105;BME280;47690;39.202;-77.198;2023-11-18T05:50:36;99341.22;;;18.08;62.62
50105;BME280;47690;39.202;-77.198;2023-11-18T05:53:06;99337.97;;;18.05;62.65
50105;BME280;47690;39.202;-77.198;2023-11-18T05:55:38;99340.66;;;18.03;62.42
50105;BME280;47690;39.202;-77.198;2023-11-18T05:58:08;99333.78;;;18.02;62.80
50105;BME280;47690;39.202;-77.198;2023-11-18T06:00:41;99326.78;;;18.02;62.47
50105;BME280;47690;39.202;-77.198;2023-11-18T06:03:12;99323.53;;;17.99;62.53
50105;BME280;47690;39.202;-77.198;2023-11-18T06:05:47;99333.94;;;17.99;62.96
50105;BME280;47690;39.202;-77.198;2023-11-18T06:08:18;99326.31;;;17.96;62.30
50105;BME280;47690;39.202;-77.198;2023-11-18T06:10:54;99325.59;;;17.94;62.16
50105;BME280;47690;39.202;-77.198;2023-11-18T06:13:28;99310.97;;;17.91;62.12
50105;BME280;47690;39.202;-77.198;2023-11-18T06:15:59;99314.59;;;17.88;62.48
50105;BME280;47690;39.202;-77.198;2023-11-18T06:18:29;99312.00;;;17.88;62.32
50105;BME280;47690;39.202;-77.198;2023-11-18T06:21:13;99299.13;;;17.85;62.65
50105;BME280;47690;39.202;-77.198;2023-11-18T06:23:44;99299.13;;;17.85;62.37
50105;BME280;47690;39.202;-77.198;2023-11-18T06:26:20;99289.00;;;17.81;62.38
50105;BME280;47690;39.202;-77.198;2023-11-18T06:28:49;99300.44;;;17.78;62.30
50105;BME280;47690;39.202;-77.198;2023-11-18T06:31:20;99279.06;;;17.73;62.67
50105;BME280;47690;39.202;-77.198;2023-11-18T06:33:52;99285.28;;;17.70;62.65
50105;BME280;47690;39.202;-77.198;2023-11-18T06:36:46;99286.97;;;17.71;62.52
50105;BME280;47690;39.202;-77.198;2023-11-18T06:39:15;99285.38;;;17.69;62.67
50105;BME280;47690;39.202;-77.198;2023-11-18T06:41:45;99280.38;;;17.66;63.17
50105;BME280;47690;39.202;-77.198;2023-11-18T06:44:19;99279.34;;;17.68;62.87
50105;BME280;47690;39.202;-77.198;2023-11-18T06:46:55;99268.81;;;17.70;63.07
50105;BME280;47690;39.202;-77.198;2023-11-18T06:49:24;99263.81;;;17.67;62.60
50105;BME280;47690;39.202;-77.198;2023-11-18T06:51:54;99263.91;;;17.65;62.41
50105;BME280;47690;39.202;-77.198;2023-11-18T06:54:26;99272.72;;;17.63;62.41
50105;BME280;47690;39.202;-77.198;2023-11-18T06:56:57;99272.84;;;17.61;62.56
50105;BME280;47690;39.202;-77.198;2023-11-18T06:59:26;99273.09;;;17.56;62.66
50105;BME280;47690;39.202;-77.198;2023-11-18T07:01:57;99264.63;;;17.53;62.27
50105;BME280;47690;39.202;-77.198;2023-11-18T07:04:50;99272.91;;;17.59;62.96
50105;BME280;47690;39.202;-77.198;2023-11-18T07:07:22;99266.31;;;17.54;62.22
50105;BME280;47690;39.202;-77.198;2023-11-18T07:09:51;99257.22;;;17.46;62.56
50105;BME280;47690;39.202;-77.198;2023-11-18T07:12:21;99266.50;;;17.51;62.58
50105;BME280;47690;39.202;-77.198;2023-11-18T07:14:51;99253.84;;;17.44;62.75
50105;BME280;47690;39.202;-77.198;2023-11-18T07:17:22;99253.94;;;17.43;62.73
50105;BME280;47690;39.202;-77.198;2023-11-18T07:19:52;99269.19;;;17.49;62.86
50105;BME280;47690;39.202;-77.198;2023-11-18T07:22:22;99252.25;;;17.42;63.01
50105;BME280;47690;39.202;-77.198;2023-11-18T07:24:51;99254.97;;;17.40;63.38
50105;BME280;47690;39.202;-77.198;2023-11-18T07:27:21;99251.50;;;17.40;63.14
50105;BME280;47690;39.202;-77.198;2023-11-18T07:29:51;99245.66;;;17.36;63.26
50105;BME280;47690;39.202;-77.198;2023-11-18T07:32:22;99239.63;;;17.36;63.36
50105;BME280;47690;39.202;-77.198;2023-11-18T07:35:19;99230.88;;;17.37;62.96
50105;BME280;47690;39.202;-77.198;2023-11-18T07:37:49;99240.53;;;17.34;63.00
50105;BME280;47690;39.202;-77.198;2023-11-18T07:40:20;99238.03;;;17.33;63.06
50105;BME280;47690;39.202;-77.198;2023-11-18T07:43:02;99236.38;;;17.32;62.91
50105;BME280;47690;39.202;-77.198;2023-11-18T07:45:37;99242.47;;;17.31;62.88
50105;BME280;47690;39.202;-77.198;2023-11-18T07:48:10;99232.91;;;17.31;62.40
50105;BME280;47690;39.202;-77.198;2023-11-18T07:50:47;99222.97;;;17.24;62.43
50105;BME280;47690;39.202;-77.198;2023-11-18T07:53:16;99215.16;;;17.24;62.59
50105;BME280;47690;39.202;-77.198;2023-11-18T07:55:46;99211.81;;;17.22;62.44
50105;BME280;47690;39.202;-77.198;2023-11-18T07:58:16;99217.84;;;17.22;62.40
50105;BME280;47690;39.202;-77.198;2023-11-18T08:00:51;99204.47;;;17.14;62.47
50105;BME280;47690;39.202;-77.198;2023-11-18T08:03:22;99215.88;;;17.11;62.97
50105;BME280;47690;39.202;-77.198;2023-11-18T08:05:52;99213.28;;;17.11;63.15
50105;BME280;47690;39.202;-77.198;2023-11-18T08:08:22;99205.75;;;17.06;63.00
50105;BME280;47690;39.202;-77.198;2023-11-18T08:10:52;99209.00;;;17.10;63.05
50105;BME280;47690;39.202;-77.198;2023-11-18T08:13:24;99201.38;;;17.07;63.12
50105;BME280;47690;39.202;-77.198;2023-11-18T08:15:57;99205.75;;;17.06;63.05
50105;BME280;47690;39.202;-77.198;2023-11-18T08:18:29;99199.91;;;17.03;63.09
50105;BME280;47690;39.202;-77.198;2023-11-18T08:21:02;99202.50;;;17.03;62.34
50105;BME280;47690;39.202;-77.198;2023-11-18T08:24:10;99207.59;;;17.04;62.87
50105;BME280;47690;39.202;-77.198;2023-11-18T08:26:42;99194.44;;;16.91;62.24
50105;BME280;47690;39.202;-77.198;2023-11-18T08:29:15;99202.16;;;16.93;62.56
50105;BME280;47690;39.202;-77.198;2023-11-18T08:31:45;99211.84;;;16.91;62.34
50105;BME280;47690;39.202;-77.198;2023-11-18T08:34:21;99212.84;;;16.88;62.36
50105;BME280;47690;39.202;-77.198;2023-11-18T08:36:57;99209.47;;;16.86;62.92
50105;BME280;47690;39.202;-77.198;2023-11-18T08:39:29;99206.22;;;16.83;62.78
50105;BME280;47690;39.202;-77.198;2023-11-18T08:42:07;99213.13;;;16.84;62.71
50105;BME280;47690;39.202;-77.198;2023-11-18T08:44:40;99202.88;;;16.80;62.70
50105;BME280;47690;39.202;-77.198;2023-11-18T08:47:12;99205.47;;;16.80;62.66
50105;BME280;47690;39.202;-77.198;2023-11-18T08:49:45;99203.72;;;16.81;62.67
50105;BME280;47690;39.202;-77.198;2023-11-18T08:52:27;99197.75;;;16.79;62.99
50105;BME280;47690;39.202;-77.198;2023-11-18T08:55:02;99203.81;;;16.79;62.42
50105;BME280;47690;39.202;-77.198;2023-11-18T08:57:48;99205.75;;;16.76;62.60
50105;BME280;47690;39.202;-77.198;2023-11-18T09:00:28;99206.75;;;16.73;62.99
50105;BME280;47690;39.202;-77.198;2023-11-18T09:03:19;99199.88;;;16.72;62.88
50105;BME280;47690;39.202;-77.198;2023-11-18T09:06:10;99203.56;;;16.68;63.10
50105;BME280;47690;39.202;-77.198;2023-11-18T09:08:55;99202.00;;;16.65;63.01
50105;BME280;47690;39.202;-77.198;2023-11-18T09:11:52;99200.16;;;16.68;63.50
50105;BME280;47690;39.202;-77.198;2023-11-18T09:14:28;99206.53;;;16.62;62.72
50105;BME280;47690;39.202;-77.198;2023-11-18T09:17:01;99210.16;;;16.59;62.40
50105;BME280;47690;39.202;-77.198;2023-11-18T09:19:38;99211.16;;;16.57;62.43
50105;BME280;47690;39.202;-77.198;2023-11-18T09:22:19;99202.88;;;16.50;62.41
50105;BME280;47690;39.202;-77.198;2023-11-18T09:24:51;99204.81;;;16.46;62.34
50105;BME280;47690;39.202;-77.198;2023-11-18T09:27:23;99202.56;;;16.40;62.40
50105;BME280;47690;39.202;-77.198;2023-11-18T09:29:58;99203.31;;;16.42;62.71
50105;BME280;47690;39.202;-77.198;2023-11-18T09:32:34;99192.25;;;16.38;62.41
50105;BME280;47690;39.202;-77.198;2023-11-18T09:35:11;99187.97;;;16.37;62.31
50105;BME280;47690;39.202;-77.198;2023-11-18T09:37:42;99188.72;;;16.39;62.48
50105;BME280;47690;39.202;-77.198;2023-11-18T09:40:17;99190.31;;;16.42;62.70
50105;BME280;47690;39.202;-77.198;2023-11-18T09:43:17;99178.41;;;16.38;62.51
50105;BME280;47690;39.202;-77.198;2023-11-18T09:45:56;99180.00;;;16.41;63.19
50105;BME280;47690;39.202;-77.198;2023-11-18T09:51:35;99187.53;;;16.45;64.45
50105;BME280;47690;39.202;-77.198;2023-11-18T09:54:40;99187.38;;;16.48;65.14
50105;BME280;47690;39.202;-77.198;2023-11-18T09:57:21;99194.41;;;16.46;64.37
50105;BME280;47690;39.202;-77.198;2023-11-18T10:00:12;99189.31;;;16.45;64.02
50105;BME280;47690;39.202;-77.198;2023-11-18T10:02:54;99201.56;;;16.43;63.60
50105;BME280;47690;39.202;-77.198;2023-11-18T10:05:33;99204.56;;;16.35;63.02
50105;BME280;47690;39.202;-77.198;2023-11-18T10:08:10;99208.34;;;16.29;63.00
50105;BME280;47690;39.202;-77.198;2023-11-18T10:10:40;99218.16;;;16.24;62.91
50105;BME280;47690;39.202;-77.198;2023-11-18T10:13:14;99226.81;;;16.24;62.69
50105;BME280;47690;39.202;-77.198;2023-11-18T10:15:56;99219.16;;;16.21;62.61
50105;BME280;47690;39.202;-77.198;2023-11-18T10:18:27;99229.75;;;16.18;62.69
50105;BME280;47690;39.202;-77.198;2023-11-18T10:21:00;99225.47;;;16.17;62.99
50105;BME280;47690;39.202;-77.198;2023-11-18T10:23:58;99236.41;;;16.22;64.23
50105;BME280;47690;39.202;-77.198;2023-11-18T10:26:43;99239.88;;;16.23;64.61
50105;BME280;47690;39.202;-77.198;2023-11-18T10:29:19;99237.19;;;16.24;64.97
50105;BME280;47690;39.202;-77.198;2023-11-18T10:32:07;99234.22;;;16.31;66.53
50105;BME280;47690;39.202;-77.198;2023-11-18T10:34:48;99239.44;;;16.31;66.01
50105;BME280;47690;39.202;-77.198;2023-11-18T10:37:21;99230.56;;;16.35;66.22
50105;BME280;47690;39.202;-77.198;2023-11-18T10:39:53;99245.06;;;16.39;66.57
50105;BME280;47690;39.202;-77.198;2023-11-18T10:42:28;99244.41;;;16.35;67.26
50105;BME280;47690;39.202;-77.198;2023-11-18T10:45:08;99250.81;;;16.44;67.06
50105;BME280;47690;39.202;-77.198;2023-11-18T10:47:43;99255.28;;;16.42;67.29
50105;BME280;47690;39.202;-77.198;2023-11-18T10:50:14;99259.56;;;16.43;67.65
50105;BME280;47690;39.202;-77.198;2023-11-18T10:52:45;99260.47;;;16.42;68.02
50105;BME280;47690;39.202;-77.198;2023-11-18T10:55:15;99272.47;;;16.45;68.30
50105;BME280;47690;39.202;-77.198;2023-11-18T10:57:53;99270.69;;;16.45;68.48
50105;BME280;47690;39.202;-77.198;2023-11-18T11:00:27;99271.28;;;16.50;68.61
50105;BME280;47690;39.202;-77.198;2023-11-18T11:03:14;99268.53;;;16.54;69.00
50105;BME280;47690;39.202;-77.198;2023-11-18T11:05:50;99276.22;;;16.55;68.92
50105;BME280;47690;39.202;-77.198;2023-11-18T11:08:47;99279.34;;;16.62;68.59
50105;BME280;47690;39.202;-77.198;2023-11-18T11:11:21;99285.28;;;16.64;69.03
50105;BME280;47690;39.202;-77.198;2023-11-18T11:13:58;99290.41;;;16.65;69.22
50105;BME280;47690;39.202;-77.198;2023-11-18T11:16:52;99304.91;;;16.70;69.22
50105;BME280;47690;39.202;-77.198;2023-11-18T11:19:38;99307.41;;;16.71;69.15
50105;BME280;47690;39.202;-77.198;2023-11-18T11:22:19;99314.47;;;16.69;68.94
50105;BME280;47690;39.202;-77.198;2023-11-18T11:28:00;99309.94;;;16.73;69.50
50105;BME280;47690;39.202;-77.198;2023-11-18T11:33:32;99318.22;;;16.79;69.61
50105;BME280;47690;39.202;-77.198;2023-11-18T11:36:20;99324.28;;;16.80;69.19
50105;BME280;47690;39.202;-77.198;2023-11-18T11:38:54;99329.56;;;16.78;69.35
50105;BME280;47690;39.202;-77.198;2023-11-18T11:41:27;99338.28;;;16.77;68.97
50105;BME280;47690;39.202;-77.198;2023-11-18T11:44:30;99347.84;;;16.77;69.15
50105;BME280;47690;39.202;-77.198;2023-11-18T11:47:13;99359.91;;;16.78;69.29
50105;BME280;47690;39.202;-77.198;2023-11-18T11:50:00;99357.22;;;16.79;69.51
50105;BME280;47690;39.202;-77.198;2023-11-18T11:52:55;99373.75;;;16.78;68.90
50105;BME280;47690;39.202;-77.198;2023-11-18T11:56:50;99386.84;;;16.77;68.58
50105;BME280;47690;39.202;-77.198;2023-11-18T12:00:20;99397.44;;;16.74;68.26
50105;BME280;47690;39.202;-77.198;2023-11-18T12:03:13;99406.38;;;16.68;68.89
50105;BME280;47690;39.202;-77.198;2023-11-18T12:05:49;99409.34;;;16.62;68.21
50105;BME280;47690;39.202;-77.198;2023-11-18T12:08:38;99425.00;;;16.60;68.11
50105;BME280;47690;39.202;-77.198;2023-11-18T12:11:13;99436.34;;;16.59;67.78
50105;BME280;47690;39.202;-77.198;2023-11-18T12:14:04;99437.41;;;16.55;67.41
50105;BME280;47690;39.202;-77.198;2023-11-18T12:17:08;99447.28;;;16.48;67.35
50105;BME280;47690;39.202;-77.198;2023-11-18T12:19:43;99444.25;;;16.40;66.57
50105;BME280;47690;39.202;-77.198;2023-11-18T12:22:25;99462.78;;;16.34;66.37
50105;BME280;47690;39.202;-77.198;2023-11-18T12:27:50;99473.72;;;16.23;65.16
50105;BME280;47690;39.202;-77.198;2023-11-18T12:33:03;99478.53;;;16.13;64.70
50105;BME280;47690;39.202;-77.198;2023-11-18T12:42:20;99506.66;;;16.05;63.63
50105;BME280;47690;39.202;-77.198;2023-11-18T12:48:20;99503.66;;;15.77;61.96
50105;BME280;47690;39.202;-77.198;2023-11-18T12:51:24;99516.16;;;15.69;61.75
50105;BME280;47690;39.202;-77.198;2023-11-18T12:53:54;99520.09;;;15.59;61.69
50105;BME280;47690;39.202;-77.198;2023-11-18T12:56:25;99531.56;;;15.54;61.53
50105;BME280;47690;39.202;-77.198;2023-11-18T12:58:59;99546.63;;;15.46;60.86
50105;BME280;47690;39.202;-77.198;2023-11-18T13:01:41;99536.56;;;15.40;60.71
50105;BME280;47690;39.202;-77.198;2023-11-18T13:04:16;99558.13;;;15.40;60.60
50105;BME280;47690;39.202;-77.198;2023-11-18T13:06:47;99564.25;;;15.39;60.67
50105;BME280;47690;39.202;-77.198;2023-11-18T13:09:21;99565.84;;;15.42;60.39
50105;BME280;47690;39.202;-77.198;2023-11-18T13:12:14;99586.47;;;15.45;60.00
50105;BME280;47690;39.202;-77.198;2023-11-18T13:14:50;99580.50;;;15.43;60.29
50105;BME280;47690;39.202;-77.198;2023-11-18T13:17:23;99580.28;;;15.48;59.87
50105;BME280;47690;39.202;-77.198;2023-11-18T13:20:13;99580.03;;;15.54;59.98
50105;BME280;47690;39.202;-77.198;2023-11-18T13:22:44;99585.06;;;15.57;59.73
50105;BME280;47690;39.202;-77.198;2023-11-18T13:25:45;99591.31;;;15.53;58.88
50105;BME280;47690;39.202;-77.198;2023-11-18T13:28:23;99606.81;;;15.54;59.06
50105;BME280;47690;39.202;-77.198;2023-11-18T13:31:30;99613.59;;;15.57;57.57
50105;BME280;47690;39.202;-77.198;2023-11-18T13:34:23;99621.00;;;15.47;56.36
50105;BME280;47690;39.202;-77.198;2023-11-18T15:54:39;99664.75;;;15.36;50.39
50105;BME280;47690;39.202;-77.198;2023-11-18T16:00:29;99660.25;;;15.78;49.84
50105;BME280;47690;39.202;-77.198;2023-11-18T16:02:59;99652.66;;;15.94;51.51
50105;BME280;47690;39.202;-77.198;2023-11-18T16:05:42;99627.91;;;16.04;50.54
50105;BME280;47690;39.202;-77.198;2023-11-18T16:08:14;99638.28;;;16.04;50.10
50105;BME280;47690;39.202;-77.198;2023-11-18T16:10:43;99644.88;;;16.11;50.01
50105;BME280;47690;39.202;-77.198;2023-11-18T16:13:13;99656.19;;;16.10;49.27